sensor_id;sensor_type;location;lat;lon;timestamp;temperature;humidity
24326;DHT22;12448;45.532;5.290;2023-06-04T00:00:10;18.90;93.10
24326;DHT22;12448;45.532;5.290;2023-06-04T00:02:36;18.90;92.80
24326;DHT22;12448;45.532;5.290;2023-06-04T00:05:02;18.90;92.70
24326;DHT22;12448;45.532;5.290;2023-06-04T00:07:28;18.30;92.30
24326;DHT22;12448;45.532;5.290;2023-06-04T00:09:55;18.90;92.50
24326;DHT22;12448;45.532;5.290;2023-06-04T00:12:20;18.80;92.50
24326;DHT22;12448;45.532;5.290;2023-06-04T00:14:46;18.80;92.50
24326;DHT22;12448;45.532;5.290;2023-06-04T00:17:12;18.80;92.50
24326;DHT22;12448;45.532;5.290;2023-06-04T00:19:44;18.80;92.60
24326;DHT22;12448;45.532;5.290;2023-06-04T00:22:10;18.80;92.60
24326;DHT22;12448;45.532;5.290;2023-06-04T00:24:37;18.70;92.70
24326;DHT22;12448;45.532;5.290;2023-06-04T00:27:04;18.70;92.70
24326;DHT22;12448;45.532;5.290;2023-06-04T00:29:30;18.80;92.40
24326;DHT22;12448;45.532;5.290;2023-06-04T00:32:02;18.80;92.30
24326;DHT22;12448;45.532;5.290;2023-06-04T00:34:28;18.80;92.20
24326;DHT22;12448;45.532;5.290;2023-06-04T00:36:54;18.70;92.30
24326;DHT22;12448;45.532;5.290;2023-06-04T00:39:20;18.80;92.50
24326;DHT22;12448;45.532;5.290;2023-06-04T00:42:26;18.80;92.70
24326;DHT22;12448;45.532;5.290;2023-06-04T00:48:18;18.80;92.40
24326;DHT22;12448;45.532;5.290;2023-06-04T00:51:10;18.70;92.50
24326;DHT22;12448;45.532;5.290;2023-06-04T00:54:19;18.70;92.80
24326;DHT22;12448;45.532;5.290;2023-06-04T00:57:12;18.80;92.90
24326;DHT22;12448;45.532;5.290;2023-06-04T01:09:27;18.70;92.70
24326;DHT22;12448;45.532;5.290;2023-06-04T01:11:53;18.80;92.70
24326;DHT22;12448;45.532;5.290;2023-06-04T01:14:19;18.80;92.70
24326;DHT22;12448;45.532;5.290;2023-06-04T01:24:03;18.80;92.50
24326;DHT22;12448;45.532;5.290;2023-06-04T01:30:58;18.60;91.70
24326;DHT22;12448;45.532;5.290;2023-06-04T01:34:20;18.60;92.00
24326;DHT22;12448;45.532;5.290;2023-06-04T01:37:08;18.50;92.10
24326;DHT22;12448;45.532;5.290;2023-06-04T01:40:28;18.50;92.40
24326;DHT22;12448;45.532;5.290;2023-06-04T01:50:31;18.70;92.70
24326;DHT22;12448;45.532;5.290;2023-06-04T01:56:57;18.70;92.60
24326;DHT22;12448;45.532;5.290;2023-06-04T02:10:51;18.50;91.90
24326;DHT22;12448;45.532;5.290;2023-06-04T02:14:10;18.40;92.10
24326;DHT22;12448;45.532;5.290;2023-06-04T02:17:25;18.40;92.30
24326;DHT22;12448;45.532;5.290;2023-06-04T02:20:27;18.40;92.60
24326;DHT22;12448;45.532;5.290;2023-06-04T02:27:01;18.30;92.50
24326;DHT22;12448;45.532;5.290;2023-06-04T02:37:18;18.20;93.40
24326;DHT22;12448;45.532;5.290;2023-06-04T02:40:32;18.30;93.60
24326;DHT22;12448;45.532;5.290;2023-06-04T02:46:29;18.30;93.40
24326;DHT22;12448;45.532;5.290;2023-06-04T02:49:48;18.30;93.30
24326;DHT22;12448;45.532;5.290;2023-06-04T02:52:45;18.30;93.40
24326;DHT22;12448;45.532;5.290;2023-06-04T02:55:16;18.30;93.50
24326;DHT22;12448;45.532;5.290;2023-06-04T02:57:53;18.30;93.50
24326;DHT22;12448;45.532;5.290;2023-06-04T03:01:24;18.30;93.50
24326;DHT22;12448;45.532;5.290;2023-06-04T03:03:56;18.30;93.40
24326;DHT22;12448;45.532;5.290;2023-06-04T03:06:26;18.30;93.50
24326;DHT22;12448;45.532;5.290;2023-06-04T03:08:52;18.30;93.60
24326;DHT22;12448;45.532;5.290;2023-06-04T03:11:18;18.30;93.60
24326;DHT22;12448;45.532;5.290;2023-06-04T03:13:46;18.30;93.60
24326;DHT22;12448;45.532;5.290;2023-06-04T03:16:12;18.30;93.60
24326;DHT22;12448;45.532;5.290;2023-06-04T03:18:40;18.30;93.80
24326;DHT22;12448;45.532;5.290;2023-06-04T03:21:05;18.30;93.90
24326;DHT22;12448;45.532;5.290;2023-06-04T03:23:33;18.40;93.90
24326;DHT22;12448;45.532;5.290;2023-06-04T03:26:02;18.70;93.80
24326;DHT22;12448;45.532;5.290;2023-06-04T03:28:29;18.40;93.80
24326;DHT22;12448;45.532;5.290;2023-06-04T03:30:54;18.40;93.70
24326;DHT22;12448;45.532;5.290;2023-06-04T03:33:20;18.40;93.60
24326;DHT22;12448;45.532;5.290;2023-06-04T03:35:46;18.40;93.50
24326;DHT22;12448;45.532;5.290;2023-06-04T03:38:14;18.40;93.40
24326;DHT22;12448;45.532;5.290;2023-06-04T03:40:40;18.50;93.50
24326;DHT22;12448;45.532;5.290;2023-06-04T03:43:06;18.50;93.50
24326;DHT22;12448;45.532;5.290;2023-06-04T04:30:12;18.10;93.60
24326;DHT22;12448;45.532;5.290;2023-06-04T04:39:52;18.20;93.50
24326;DHT22;12448;45.532;5.290;2023-06-04T04:45:57;18.20;93.40
24326;DHT22;12448;45.532;5.290;2023-06-04T04:48:50;18.20;93.50
24326;DHT22;12448;45.532;5.290;2023-06-04T04:54:46;18.20;93.60
24326;DHT22;12448;45.532;5.290;2023-06-04T04:58:00;18.20;93.70
24326;DHT22;12448;45.532;5.290;2023-06-04T05:03:53;18.20;93.80
24326;DHT22;12448;45.532;5.290;2023-06-04T05:10:14;18.30;93.90
24326;DHT22;12448;45.532;5.290;2023-06-04T05:16:38;18.40;93.90
24326;DHT22;12448;45.532;5.290;2023-06-04T05:19:06;18.60;93.80
24326;DHT22;12448;45.532;5.290;2023-06-04T05:21:49;18.40;93.30
24326;DHT22;12448;45.532;5.290;2023-06-04T05:28:54;18.40;93.70
24326;DHT22;12448;45.532;5.290;2023-06-04T05:39:07;18.40;93.60
24326;DHT22;12448;45.532;5.290;2023-06-04T05:41:42;18.30;93.60
24326;DHT22;12448;45.532;5.290;2023-06-04T05:47:51;18.30;93.90
24326;DHT22;12448;45.532;5.290;2023-06-04T05:53:47;18.40;94.00
24326;DHT22;12448;45.532;5.290;2023-06-04T06:00:12;18.50;93.70
24326;DHT22;12448;45.532;5.290;2023-06-04T06:06:57;18.50;93.80
24326;DHT22;12448;45.532;5.290;2023-06-04T06:12:55;18.60;93.70
24326;DHT22;12448;45.532;5.290;2023-06-04T06:15:45;18.50;93.60
24326;DHT22;12448;45.532;5.290;2023-06-04T06:18:47;18.50;93.80
24326;DHT22;12448;45.532;5.290;2023-06-04T06:21:22;18.50;93.90
24326;DHT22;12448;45.532;5.290;2023-06-04T06:23:51;18.60;93.90
24326;DHT22;12448;45.532;5.290;2023-06-04T06:26:17;18.70;94.00
24326;DHT22;12448;45.532;5.290;2023-06-04T06:28:43;18.70;93.80
24326;DHT22;12448;45.532;5.290;2023-06-04T06:31:09;18.80;93.80
24326;DHT22;12448;45.532;5.290;2023-06-04T06:33:35;18.90;93.70
24326;DHT22;12448;45.532;5.290;2023-06-04T06:36:07;19.00;93.70
24326;DHT22;12448;45.532;5.290;2023-06-04T06:38:32;19.00;93.70
24326;DHT22;12448;45.532;5.290;2023-06-04T06:40:58;19.10;93.70
24326;DHT22;12448;45.532;5.290;2023-06-04T06:43:23;19.20;93.70
24326;DHT22;12448;45.532;5.290;2023-06-04T06:45:49;19.20;93.60
24326;DHT22;12448;45.532;5.290;2023-06-04T06:48:15;19.30;93.60
24326;DHT22;12448;45.532;5.290;2023-06-04T06:50:40;19.30;93.60
24326;DHT22;12448;45.532;5.290;2023-06-04T06:53:06;19.40;93.40
24326;DHT22;12448;45.532;5.290;2023-06-04T06:55:31;19.40;93.70
24326;DHT22;12448;45.532;5.290;2023-06-04T06:57:58;19.50;93.20
24326;DHT22;12448;45.532;5.290;2023-06-04T07:00:23;19.60;93.20
24326;DHT22;12448;45.532;5.290;2023-06-04T07:02:49;19.60;93.40
24326;DHT22;12448;45.532;5.290;2023-06-04T07:05:14;19.70;93.10
24326;DHT22;12448;45.532;5.290;2023-06-04T07:07:42;19.70;93.20
24326;DHT22;12448;45.532;5.290;2023-06-04T07:10:09;19.80;93.30
24326;DHT22;12448;45.532;5.290;2023-06-04T07:12:35;19.90;93.30
24326;DHT22;12448;45.532;5.290;2023-06-04T07:15:01;20.00;93.30
24326;DHT22;12448;45.532;5.290;2023-06-04T07:17:27;20.00;93.40
24326;DHT22;12448;45.532;5.290;2023-06-04T07:19:53;20.10;93.30
24326;DHT22;12448;45.532;5.290;2023-06-04T07:22:18;20.10;93.20
24326;DHT22;12448;45.532;5.290;2023-06-04T07:24:44;20.20;93.10
24326;DHT22;12448;45.532;5.290;2023-06-04T07:27:14;20.20;93.10
24326;DHT22;12448;45.532;5.290;2023-06-04T07:29:40;20.20;93.10
24326;DHT22;12448;45.532;5.290;2023-06-04T07:32:08;20.20;93.10
24326;DHT22;12448;45.532;5.290;2023-06-04T07:34:33;20.20;93.20
24326;DHT22;12448;45.532;5.290;2023-06-04T07:37:02;20.30;93.20
24326;DHT22;12448;45.532;5.290;2023-06-04T07:39:28;20.20;93.20
24326;DHT22;12448;45.532;5.290;2023-06-04T07:41:54;20.30;93.30
24326;DHT22;12448;45.532;5.290;2023-06-04T07:44:19;20.20;93.30
24326;DHT22;12448;45.532;5.290;2023-06-04T07:46:45;20.30;93.40
24326;DHT22;12448;45.532;5.290;2023-06-04T07:49:11;20.30;93.40
24326;DHT22;12448;45.532;5.290;2023-06-04T07:51:36;20.40;93.30
24326;DHT22;12448;45.532;5.290;2023-06-04T07:54:03;20.50;93.30
24326;DHT22;12448;45.532;5.290;2023-06-04T07:56:29;20.50;93.20
24326;DHT22;12448;45.532;5.290;2023-06-04T07:58:55;20.50;93.20
24326;DHT22;12448;45.532;5.290;2023-06-04T08:01:21;20.50;93.10
24326;DHT22;12448;45.532;5.290;2023-06-04T08:03:47;20.60;92.90
24326;DHT22;12448;45.532;5.290;2023-06-04T08:06:12;20.90;92.90
24326;DHT22;12448;45.532;5.290;2023-06-04T08:08:43;20.60;92.70
24326;DHT22;12448;45.532;5.290;2023-06-04T08:11:11;20.60;92.70
24326;DHT22;12448;45.532;5.290;2023-06-04T08:13:37;20.60;92.80
24326;DHT22;12448;45.532;5.290;2023-06-04T08:16:03;20.60;92.90
24326;DHT22;12448;45.532;5.290;2023-06-04T08:18:28;20.70;92.90
24326;DHT22;12448;45.532;5.290;2023-06-04T08:20:54;20.70;92.90
24326;DHT22;12448;45.532;5.290;2023-06-04T08:23:20;20.80;93.00
24326;DHT22;12448;45.532;5.290;2023-06-04T08:25:45;20.80;92.80
24326;DHT22;12448;45.532;5.290;2023-06-04T08:28:13;20.90;92.80
24326;DHT22;12448;45.532;5.290;2023-06-04T08:30:41;20.90;92.80
24326;DHT22;12448;45.532;5.290;2023-06-04T08:33:07;21.00;92.70
24326;DHT22;12448;45.532;5.290;2023-06-04T08:35:33;21.00;92.50
24326;DHT22;12448;45.532;5.290;2023-06-04T08:37:59;21.10;92.40
24326;DHT22;12448;45.532;5.290;2023-06-04T08:40:25;21.10;92.30
24326;DHT22;12448;45.532;5.290;2023-06-04T08:42:51;21.10;92.30
24326;DHT22;12448;45.532;5.290;2023-06-04T08:45:23;21.10;91.70
24326;DHT22;12448;45.532;5.290;2023-06-04T08:47:50;21.20;91.90
24326;DHT22;12448;45.532;5.290;2023-06-04T08:50:23;21.10;92.20
24326;DHT22;12448;45.532;5.290;2023-06-04T08:52:54;21.10;91.70
24326;DHT22;12448;45.532;5.290;2023-06-04T08:55:20;21.00;92.00
24326;DHT22;12448;45.532;5.290;2023-06-04T08:57:50;21.00;92.10
24326;DHT22;12448;45.532;5.290;2023-06-04T09:00:19;21.00;92.30
24326;DHT22;12448;45.532;5.290;2023-06-04T09:02:50;21.10;92.40
24326;DHT22;12448;45.532;5.290;2023-06-04T09:05:20;21.10;92.50
24326;DHT22;12448;45.532;5.290;2023-06-04T09:07:46;21.20;92.30
24326;DHT22;12448;45.532;5.290;2023-06-04T09:10:17;21.40;92.20
24326;DHT22;12448;45.532;5.290;2023-06-04T09:12:46;21.60;92.00
24326;DHT22;12448;45.532;5.290;2023-06-04T09:15:12;21.70;91.90
24326;DHT22;12448;45.532;5.290;2023-06-04T09:17:38;21.80;91.90
24326;DHT22;12448;45.532;5.290;2023-06-04T09:20:04;21.90;91.80
24326;DHT22;12448;45.532;5.290;2023-06-04T09:22:35;22.00;91.60
24326;DHT22;12448;45.532;5.290;2023-06-04T09:25:03;22.00;91.40
24326;DHT22;12448;45.532;5.290;2023-06-04T09:27:37;22.00;91.10
24326;DHT22;12448;45.532;5.290;2023-06-04T09:30:04;22.20;91.00
24326;DHT22;12448;45.532;5.290;2023-06-04T09:32:31;22.20;91.00
24326;DHT22;12448;45.532;5.290;2023-06-04T09:35:12;22.20;91.00
24326;DHT22;12448;45.532;5.290;2023-06-04T09:37:39;22.20;90.70
24326;DHT22;12448;45.532;5.290;2023-06-04T09:40:06;22.10;90.40
24326;DHT22;12448;45.532;5.290;2023-06-04T09:42:45;22.10;90.60
24326;DHT22;12448;45.532;5.290;2023-06-04T09:45:12;22.10;91.00
24326;DHT22;12448;45.532;5.290;2023-06-04T09:47:42;22.10;91.10
24326;DHT22;12448;45.532;5.290;2023-06-04T09:50:09;22.20;91.00
24326;DHT22;12448;45.532;5.290;2023-06-04T09:52:35;22.10;90.80
24326;DHT22;12448;45.532;5.290;2023-06-04T09:55:00;22.10;90.40
24326;DHT22;12448;45.532;5.290;2023-06-04T09:57:29;22.00;90.00
24326;DHT22;12448;45.532;5.290;2023-06-04T09:59:55;22.10;90.40
24326;DHT22;12448;45.532;5.290;2023-06-04T10:02:22;22.00;90.40
24326;DHT22;12448;45.532;5.290;2023-06-04T10:04:55;22.00;90.30
24326;DHT22;12448;45.532;5.290;2023-06-04T10:07:25;21.90;90.10
24326;DHT22;12448;45.532;5.290;2023-06-04T10:09:52;21.90;90.40
24326;DHT22;12448;45.532;5.290;2023-06-04T10:12:25;21.80;90.30
24326;DHT22;12448;45.532;5.290;2023-06-04T10:14:57;21.80;90.30
24326;DHT22;12448;45.532;5.290;2023-06-04T10:17:24;21.80;90.40
24326;DHT22;12448;45.532;5.290;2023-06-04T10:19:52;21.80;89.80
24326;DHT22;12448;45.532;5.290;2023-06-04T10:22:20;21.90;90.00
24326;DHT22;12448;45.532;5.290;2023-06-04T10:24:46;21.90;90.50
24326;DHT22;12448;45.532;5.290;2023-06-04T10:27:12;22.00;90.70
24326;DHT22;12448;45.532;5.290;2023-06-04T10:29:39;22.10;90.80
24326;DHT22;12448;45.532;5.290;2023-06-04T10:32:05;22.20;90.70
24326;DHT22;12448;45.532;5.290;2023-06-04T10:34:31;22.40;90.10
24326;DHT22;12448;45.532;5.290;2023-06-04T10:36:58;22.50;90.10
24326;DHT22;12448;45.532;5.290;2023-06-04T10:39:31;22.50;90.30
24326;DHT22;12448;45.532;5.290;2023-06-04T10:42:04;22.50;90.50
24326;DHT22;12448;45.532;5.290;2023-06-04T10:44:32;22.50;90.30
24326;DHT22;12448;45.532;5.290;2023-06-04T10:46:58;22.40;90.00
24326;DHT22;12448;45.532;5.290;2023-06-04T10:49:28;22.20;90.00
24326;DHT22;12448;45.532;5.290;2023-06-04T10:51:55;22.10;90.20
24326;DHT22;12448;45.532;5.290;2023-06-04T10:54:29;22.00;90.30
24326;DHT22;12448;45.532;5.290;2023-06-04T10:56:55;22.00;90.50
24326;DHT22;12448;45.532;5.290;2023-06-04T10:59:20;22.10;90.90
24326;DHT22;12448;45.532;5.290;2023-06-04T11:01:47;22.10;90.80
24326;DHT22;12448;45.532;5.290;2023-06-04T11:04:23;22.20;90.70
24326;DHT22;12448;45.532;5.290;2023-06-04T11:07:06;22.30;90.60
24326;DHT22;12448;45.532;5.290;2023-06-04T11:09:36;22.30;90.20
24326;DHT22;12448;45.532;5.290;2023-06-04T11:12:04;22.30;89.20
24326;DHT22;12448;45.532;5.290;2023-06-04T11:14:30;22.40;89.70
24326;DHT22;12448;45.532;5.290;2023-06-04T11:16:56;22.50;88.90
24326;DHT22;12448;45.532;5.290;2023-06-04T11:19:22;22.60;89.00
24326;DHT22;12448;45.532;5.290;2023-06-04T11:21:48;22.70;88.70
24326;DHT22;12448;45.532;5.290;2023-06-04T11:24:15;22.70;87.80
24326;DHT22;12448;45.532;5.290;2023-06-04T11:26:41;22.70;85.20
24326;DHT22;12448;45.532;5.290;2023-06-04T11:29:09;22.90;86.00
24326;DHT22;12448;45.532;5.290;2023-06-04T11:31:47;22.90;84.10
24326;DHT22;12448;45.532;5.290;2023-06-04T11:34:33;22.90;84.20
24326;DHT22;12448;45.532;5.290;2023-06-04T11:37:09;23.00;85.90
24326;DHT22;12448;45.532;5.290;2023-06-04T11:39:35;23.20;86.90
24326;DHT22;12448;45.532;5.290;2023-06-04T11:42:07;23.40;86.30
24326;DHT22;12448;45.532;5.290;2023-06-04T11:44:38;23.60;84.40
24326;DHT22;12448;45.532;5.290;2023-06-04T11:47:13;23.80;83.70
24326;DHT22;12448;45.532;5.290;2023-06-04T11:49:39;23.80;83.80
24326;DHT22;12448;45.532;5.290;2023-06-04T11:52:04;23.90;83.60
24326;DHT22;12448;45.532;5.290;2023-06-04T11:54:32;24.00;82.60
24326;DHT22;12448;45.532;5.290;2023-06-04T11:57:02;23.90;83.00
24326;DHT22;12448;45.532;5.290;2023-06-04T11:59:30;23.90;82.00
24326;DHT22;12448;45.532;5.290;2023-06-04T12:01:56;23.90;81.90
24326;DHT22;12448;45.532;5.290;2023-06-04T12:04:22;23.90;81.70
24326;DHT22;12448;45.532;5.290;2023-06-04T12:09:26;24.10;81.00
24326;DHT22;12448;45.532;5.290;2023-06-04T12:12:04;24.10;81.60
24326;DHT22;12448;45.532;5.290;2023-06-04T12:14:30;24.30;82.80
24326;DHT22;12448;45.532;5.290;2023-06-04T12:16:57;24.70;82.80
24326;DHT22;12448;45.532;5.290;2023-06-04T12:19:23;24.50;80.20
24326;DHT22;12448;45.532;5.290;2023-06-04T12:24:26;24.40;79.80
24326;DHT22;12448;45.532;5.290;2023-06-04T12:27:05;24.40;80.00
24326;DHT22;12448;45.532;5.290;2023-06-04T12:29:31;24.40;79.10
24326;DHT22;12448;45.532;5.290;2023-06-04T12:32:08;24.50;80.10
24326;DHT22;12448;45.532;5.290;2023-06-04T12:34:40;24.40;78.50
24326;DHT22;12448;45.532;5.290;2023-06-04T12:37:06;24.40;78.40
24326;DHT22;12448;45.532;5.290;2023-06-04T12:39:36;24.40;78.80
24326;DHT22;12448;45.532;5.290;2023-06-04T12:42:06;24.50;77.60
24326;DHT22;12448;45.532;5.290;2023-06-04T12:44:37;24.50;78.20
24326;DHT22;12448;45.532;5.290;2023-06-04T12:47:07;24.50;78.80
24326;DHT22;12448;45.532;5.290;2023-06-04T12:49:33;24.60;77.20
24326;DHT22;12448;45.532;5.290;2023-06-04T12:51:59;24.60;78.80
24326;DHT22;12448;45.532;5.290;2023-06-04T12:54:24;24.70;79.20
24326;DHT22;12448;45.532;5.290;2023-06-04T12:56:52;24.80;79.30
24326;DHT22;12448;45.532;5.290;2023-06-04T12:59:18;24.90;78.10
24326;DHT22;12448;45.532;5.290;2023-06-04T13:01:44;25.00;77.90
24326;DHT22;12448;45.532;5.290;2023-06-04T13:04:10;25.10;77.80
24326;DHT22;12448;45.532;5.290;2023-06-04T13:06:37;25.10;77.90
24326;DHT22;12448;45.532;5.290;2023-06-04T13:09:03;25.10;77.80
24326;DHT22;12448;45.532;5.290;2023-06-04T13:11:38;25.20;77.30
24326;DHT22;12448;45.532;5.290;2023-06-04T13:14:04;25.40;77.30
24326;DHT22;12448;45.532;5.290;2023-06-04T13:16:29;25.40;75.90
24326;DHT22;12448;45.532;5.290;2023-06-04T13:18:55;25.50;75.90
24326;DHT22;12448;45.532;5.290;2023-06-04T13:21:21;25.40;73.80
24326;DHT22;12448;45.532;5.290;2023-06-04T13:23:46;25.10;74.20
24326;DHT22;12448;45.532;5.290;2023-06-04T13:26:12;25.20;75.10
24326;DHT22;12448;45.532;5.290;2023-06-04T13:28:38;25.20;76.10
24326;DHT22;12448;45.532;5.290;2023-06-04T13:31:04;25.20;75.00
24326;DHT22;12448;45.532;5.290;2023-06-04T13:33:29;25.10;72.40
24326;DHT22;12448;45.532;5.290;2023-06-04T13:35:55;25.10;74.10
24326;DHT22;12448;45.532;5.290;2023-06-04T13:38:21;25.10;72.80
24326;DHT22;12448;45.532;5.290;2023-06-04T13:40:46;25.20;71.40
24326;DHT22;12448;45.532;5.290;2023-06-04T13:43:12;25.20;71.60
24326;DHT22;12448;45.532;5.290;2023-06-04T13:45:40;25.30;72.30
24326;DHT22;12448;45.532;5.290;2023-06-04T13:48:07;25.40;72.50
24326;DHT22;12448;45.532;5.290;2023-06-04T13:50:33;25.40;70.10
24326;DHT22;12448;45.532;5.290;2023-06-04T13:53:00;25.40;70.50
24326;DHT22;12448;45.532;5.290;2023-06-04T13:55:25;25.40;69.30
24326;DHT22;12448;45.532;5.290;2023-06-04T13:57:51;25.00;69.80
24326;DHT22;12448;45.532;5.290;2023-06-04T14:00:17;25.30;71.00
24326;DHT22;12448;45.532;5.290;2023-06-04T14:02:42;25.30;71.40
24326;DHT22;12448;45.532;5.290;2023-06-04T14:05:08;25.20;69.00
24326;DHT22;12448;45.532;5.290;2023-06-04T14:07:34;25.30;70.30
24326;DHT22;12448;45.532;5.290;2023-06-04T14:10:00;25.30;71.00
24326;DHT22;12448;45.532;5.290;2023-06-04T14:12:26;25.10;71.90
24326;DHT22;12448;45.532;5.290;2023-06-04T14:14:51;25.10;72.50
24326;DHT22;12448;45.532;5.290;2023-06-04T14:17:17;25.10;71.50
24326;DHT22;12448;45.532;5.290;2023-06-04T14:19:43;25.10;69.60
24326;DHT22;12448;45.532;5.290;2023-06-04T14:22:10;25.10;71.20
24326;DHT22;12448;45.532;5.290;2023-06-04T14:24:37;25.10;71.30
24326;DHT22;12448;45.532;5.290;2023-06-04T14:27:03;25.00;72.20
24326;DHT22;12448;45.532;5.290;2023-06-04T14:29:29;24.90;72.00
24326;DHT22;12448;45.532;5.290;2023-06-04T14:31:55;24.90;71.40
24326;DHT22;12448;45.532;5.290;2023-06-04T14:34:20;24.80;70.80
24326;DHT22;12448;45.532;5.290;2023-06-04T14:36:46;24.80;70.10
24326;DHT22;12448;45.532;5.290;2023-06-04T14:39:12;24.90;70.90
24326;DHT22;12448;45.532;5.290;2023-06-04T14:41:38;24.90;70.50
24326;DHT22;12448;45.532;5.290;2023-06-04T14:44:04;25.00;70.90
24326;DHT22;12448;45.532;5.290;2023-06-04T14:46:29;25.00;71.30
24326;DHT22;12448;45.532;5.290;2023-06-04T14:48:55;25.40;70.10
24326;DHT22;12448;45.532;5.290;2023-06-04T14:51:21;25.20;68.40
24326;DHT22;12448;45.532;5.290;2023-06-04T14:53:48;25.40;68.60
24326;DHT22;12448;45.532;5.290;2023-06-04T14:56:13;25.50;68.80
24326;DHT22;12448;45.532;5.290;2023-06-04T14:58:39;25.60;67.90
24326;DHT22;12448;45.532;5.290;2023-06-04T15:01:05;25.80;69.00
24326;DHT22;12448;45.532;5.290;2023-06-04T15:03:32;26.00;69.20
24326;DHT22;12448;45.532;5.290;2023-06-04T15:05:58;26.10;64.70
24326;DHT22;12448;45.532;5.290;2023-06-04T15:08:23;26.20;65.00
24326;DHT22;12448;45.532;5.290;2023-06-04T15:10:49;26.30;62.70
24326;DHT22;12448;45.532;5.290;2023-06-04T15:13:14;26.30;63.50
24326;DHT22;12448;45.532;5.290;2023-06-04T15:15:40;26.30;63.20
24326;DHT22;12448;45.532;5.290;2023-06-04T15:18:06;26.20;62.70
24326;DHT22;12448;45.532;5.290;2023-06-04T15:20:32;26.20;62.70
24326;DHT22;12448;45.532;5.290;2023-06-04T15:22:58;26.10;61.00
24326;DHT22;12448;45.532;5.290;2023-06-04T15:25:23;26.10;62.50
24326;DHT22;12448;45.532;5.290;2023-06-04T15:27:49;25.90;63.20
24326;DHT22;12448;45.532;5.290;2023-06-04T15:30:15;25.90;63.40
24326;DHT22;12448;45.532;5.290;2023-06-04T15:32:43;25.80;65.60
24326;DHT22;12448;45.532;5.290;2023-06-04T15:35:09;25.80;69.40
24326;DHT22;12448;45.532;5.290;2023-06-04T15:37:35;25.80;71.40
24326;DHT22;12448;45.532;5.290;2023-06-04T15:40:01;25.80;72.80
24326;DHT22;12448;45.532;5.290;2023-06-04T15:42:26;25.80;73.40
24326;DHT22;12448;45.532;5.290;2023-06-04T15:44:52;25.80;73.60
24326;DHT22;12448;45.532;5.290;2023-06-04T15:47:18;25.80;73.80
24326;DHT22;12448;45.532;5.290;2023-06-04T15:49:43;25.80;74.10
24326;DHT22;12448;45.532;5.290;2023-06-04T15:52:09;25.80;74.30
24326;DHT22;12448;45.532;5.290;2023-06-04T15:54:35;25.80;74.70
24326;DHT22;12448;45.532;5.290;2023-06-04T15:57:01;25.80;73.70
24326;DHT22;12448;45.532;5.290;2023-06-04T15:59:27;25.80;73.30
24326;DHT22;12448;45.532;5.290;2023-06-04T16:01:52;25.60;70.00
24326;DHT22;12448;45.532;5.290;2023-06-04T16:04:18;25.50;71.80
24326;DHT22;12448;45.532;5.290;2023-06-04T16:06:44;25.40;71.20
24326;DHT22;12448;45.532;5.290;2023-06-04T16:09:09;25.40;72.30
24326;DHT22;12448;45.532;5.290;2023-06-04T16:11:35;25.40;71.70
24326;DHT22;12448;45.532;5.290;2023-06-04T16:14:04;25.30;71.30
24326;DHT22;12448;45.532;5.290;2023-06-04T16:16:31;25.20;72.70
24326;DHT22;12448;45.532;5.290;2023-06-04T16:18:57;25.00;73.00
24326;DHT22;12448;45.532;5.290;2023-06-04T16:21:24;24.80;72.20
24326;DHT22;12448;45.532;5.290;2023-06-04T16:23:50;24.70;73.00
24326;DHT22;12448;45.532;5.290;2023-06-04T16:26:16;24.60;72.10
24326;DHT22;12448;45.532;5.290;2023-06-04T16:28:42;24.50;72.30
24326;DHT22;12448;45.532;5.290;2023-06-04T16:31:07;24.50;72.80
24326;DHT22;12448;45.532;5.290;2023-06-04T16:33:33;24.40;72.80
24326;DHT22;12448;45.532;5.290;2023-06-04T16:35:59;24.40;73.40
24326;DHT22;12448;45.532;5.290;2023-06-04T16:38:24;24.40;73.60
24326;DHT22;12448;45.532;5.290;2023-06-04T16:40:50;24.40;73.20
24326;DHT22;12448;45.532;5.290;2023-06-04T16:43:16;24.40;72.90
24326;DHT22;12448;45.532;5.290;2023-06-04T16:45:41;24.30;73.20
24326;DHT22;12448;45.532;5.290;2023-06-04T16:48:07;24.30;72.80
24326;DHT22;12448;45.532;5.290;2023-06-04T16:50:33;24.30;73.20
24326;DHT22;12448;45.532;5.290;2023-06-04T16:52:59;24.30;73.80
24326;DHT22;12448;45.532;5.290;2023-06-04T16:55:29;24.30;74.60
24326;DHT22;12448;45.532;5.290;2023-06-04T16:57:56;24.30;75.40
24326;DHT22;12448;45.532;5.290;2023-06-04T17:00:22;24.20;75.70
24326;DHT22;12448;45.532;5.290;2023-06-04T17:02:48;24.20;76.00
24326;DHT22;12448;45.532;5.290;2023-06-04T17:05:13;24.20;76.10
24326;DHT22;12448;45.532;5.290;2023-06-04T17:07:45;24.10;75.60
24326;DHT22;12448;45.532;5.290;2023-06-04T17:10:11;24.00;75.90
24326;DHT22;12448;45.532;5.290;2023-06-04T17:12:37;24.00;76.20
24326;DHT22;12448;45.532;5.290;2023-06-04T17:15:04;23.90;76.60
24326;DHT22;12448;45.532;5.290;2023-06-04T17:17:30;23.90;76.40
24326;DHT22;12448;45.532;5.290;2023-06-04T17:19:55;23.80;76.20
24326;DHT22;12448;45.532;5.290;2023-06-04T17:22:21;23.70;76.50
24326;DHT22;12448;45.532;5.290;2023-06-04T17:24:49;23.70;77.20
24326;DHT22;12448;45.532;5.290;2023-06-04T17:27:15;23.70;77.60
24326;DHT22;12448;45.532;5.290;2023-06-04T17:29:40;23.60;78.00
24326;DHT22;12448;45.532;5.290;2023-06-04T17:32:07;23.60;77.40
24326;DHT22;12448;45.532;5.290;2023-06-04T17:34:33;23.60;76.90
24326;DHT22;12448;45.532;5.290;2023-06-04T17:36:58;23.60;76.10
24326;DHT22;12448;45.532;5.290;2023-06-04T17:39:25;23.50;75.90
24326;DHT22;12448;45.532;5.290;2023-06-04T17:41:51;23.50;76.60
24326;DHT22;12448;45.532;5.290;2023-06-04T17:44:16;23.40;77.10
24326;DHT22;12448;45.532;5.290;2023-06-04T17:46:42;23.40;77.10
24326;DHT22;12448;45.532;5.290;2023-06-04T17:49:08;23.30;77.10
24326;DHT22;12448;45.532;5.290;2023-06-04T17:51:36;23.30;77.40
24326;DHT22;12448;45.532;5.290;2023-06-04T17:54:02;23.20;77.70
24326;DHT22;12448;45.532;5.290;2023-06-04T17:56:28;23.10;77.80
24326;DHT22;12448;45.532;5.290;2023-06-04T17:58:53;23.10;77.10
24326;DHT22;12448;45.532;5.290;2023-06-04T18:01:19;23.00;77.40
24326;DHT22;12448;45.532;5.290;2023-06-04T18:03:45;23.00;78.70
24326;DHT22;12448;45.532;5.290;2023-06-04T18:06:15;23.00;79.70
24326;DHT22;12448;45.532;5.290;2023-06-04T18:08:41;22.90;79.70
24326;DHT22;12448;45.532;5.290;2023-06-04T18:11:07;22.70;79.70
24326;DHT22;12448;45.532;5.290;2023-06-04T18:13:32;22.60;80.10
24326;DHT22;12448;45.532;5.290;2023-06-04T18:15:58;22.50;81.00
24326;DHT22;12448;45.532;5.290;2023-06-04T18:18:24;22.40;82.20
24326;DHT22;12448;45.532;5.290;2023-06-04T18:20:50;22.30;82.70
24326;DHT22;12448;45.532;5.290;2023-06-04T18:23:15;22.30;83.60
24326;DHT22;12448;45.532;5.290;2023-06-04T18:25:41;22.30;84.60
24326;DHT22;12448;45.532;5.290;2023-06-04T18:28:12;22.20;85.10
24326;DHT22;12448;45.532;5.290;2023-06-04T18:30:38;22.20;85.30